Westhampton, New York
Current Conditions -  °F | °C
As of 4:53 PM on Thursday 27 Nov 2014 (Local Time) from KFOK Reporting Station
Overcast Overcast  
Wind Chill: 32°   Ceiling: 2300
Heat Index: 37°   Visibility: 10mi
Dew Point: 32°   Wind: 6mph
Humidity: 82%   Direction: 300°WNW
Pressure: 30"   Gusts: NA
Location:  40.84°N, 72.66°W
Report Text: KFOK 272153Z AUTO 30005KT 10SM FEW012 OVC023 03/00 A3000 RMK AO2 SLP158 T00280000 TSNO
Loading
Personal Weather Stations






























Interactive Weather Map New forecast layout! Learn more

10-Day Weather Forecast

Advertisements
Track Severe Weather on mobile